Airfield :
LOGIN :

Register | Disclaimer

   EN    FR    IT 

 










Legend :    VFR   Marginal VFR   IFR   Intensive IFR   Very Intensive IFR
Visi :
Ceiling :
>= 8 km
>= 3000ft
5 to 8 km
1000 to 3000 ft
1500m to 5 km
500 to 1000 ft
800 to 1500m
200 to 500 ft
< 800m
< 200 ft
Symbols :   Thunderstorms  Fog  Heavy snow  Heavy precipitations  Wind > 20 kt
SIGMETs :     Misc.  Thunderstorms  Icing  Turbulence  Mountain Waves  Volcanic Ashes







- Airport Elevation : 239 ft
- IATA code : VRN


LIPX - Villafranca Int. Verona

CURRENT METAR :
  • 171420Z 09006KT 050V110 9999 FEW060 07/M10 Q1019

EXPIRED METARs :
  • 171350Z VRB02KT 9999 FEW060 07/M10 Q1018
  • 171320Z 22004KT 190V270 9999 FEW060 06/M10 Q1018
  • 171250Z 21004KT 160V260 9999 FEW060 07/M10 Q1018
  • 171220Z 16004KT 130V190 9999 FEW060 07/M10 Q1018
  • 171150Z 14005KT 110V190 9999 SCT060 06/M10 Q1019

TAF TAF LIPX
Valid from the 17 at 15:00 until the 18 at 00:00 UTC


171400Z 1715/1724 07008KT 9999 BKN090
No reported NOTAMs for that airfield.
1 SIGMET reported for the Milano FIR (LIMM) :
 
Severe icing
LIMM SIGMET 4 VALID 171120/171520 LIMM- LIMM MILANO FIR SEV ICE FCST WI N4451 E01308 - N4407 E01031 - N4342 E01102 - N4328 E01430 - N4431 E01317 - N4451 E01308 BLW FL100 STNR NC=



MET'MAP, your aeronautical weather chart ! - Copyright ORBIFLY December 2007 - Disclaimer

ORBIFLY MET'MAP TEAM :

Programming & Development : Alexandra Zaïnal
Concept & Development : Baudouin d'Aumeries
Co-Development & Prog : Marc-Olivier Méhu
Technical & hardware support : Manuel Goepfert

Contact : metmap@orbifly.com




SOURCES & CREDITS :

   NOAA